createdAt,value
2019-05-09T00:00:36.121Z,22.00
2019-05-09T00:03:06.643Z,21.40
2019-05-09T00:05:34.546Z,23.77
2019-05-09T00:08:04.923Z,20.80
2019-05-09T00:10:41.135Z,22.75
2019-05-09T00:13:03.784Z,22.00
2019-05-09T00:15:33.265Z,24.52
2019-05-09T00:18:03.694Z,21.40
2019-05-09T00:20:41.068Z,21.45
2019-05-09T00:23:08.951Z,21.50
2019-05-09T00:25:38.890Z,21.75
2019-05-09T00:28:07.118Z,23.18
2019-05-09T00:31:00.467Z,21.33
2019-05-09T00:33:39.247Z,21.95
2019-05-09T00:36:07.181Z,21.73
2019-05-09T00:38:43.447Z,21.30
2019-05-09T00:41:13.748Z,20.27
2019-05-09T00:43:43.672Z,20.12
2019-05-09T00:46:17.922Z,20.60
2019-05-09T00:49:09.163Z,22.00
2019-05-09T00:51:37.083Z,21.45
2019-05-09T00:54:05.418Z,21.02
2019-05-09T00:56:33.723Z,20.23
2019-05-09T00:59:03.590Z,19.50
2019-05-09T01:01:31.426Z,21.17
2019-05-09T01:04:01.394Z,22.30
2019-05-09T01:06:29.334Z,20.40
2019-05-09T01:09:04.251Z,20.82
2019-05-09T01:11:33.332Z,19.70
2019-05-09T01:14:03.437Z,20.10
2019-05-09T01:16:33.665Z,19.40
2019-05-09T01:19:03.540Z,19.48
2019-05-09T01:21:33.301Z,19.95
2019-05-09T01:24:03.189Z,18.62
2019-05-09T01:26:30.467Z,18.55
2019-05-09T01:28:58.445Z,19.42
2019-05-09T01:31:27.882Z,19.27
2019-05-09T01:34:18.180Z,18.75
2019-05-09T01:37:09.051Z,17.45
2019-05-09T01:39:37.426Z,18.27
2019-05-09T01:42:05.689Z,18.62
2019-05-09T01:44:35.650Z,20.23
2019-05-09T01:47:04.137Z,18.65
2019-05-09T01:49:34.243Z,19.30
2019-05-09T01:52:03.842Z,19.45
2019-05-09T01:54:33.422Z,19.45
2019-05-09T01:57:03.294Z,19.87
2019-05-09T01:59:33.662Z,20.40
2019-05-09T02:02:08.344Z,18.92
2019-05-09T02:04:33.470Z,17.90
2019-05-09T02:07:04.388Z,19.65
2019-05-09T02:09:34.199Z,18.00
2019-05-09T02:12:03.776Z,20.05
2019-05-09T02:14:38.997Z,18.15
2019-05-09T02:17:20.127Z,17.42
2019-05-09T02:19:48.115Z,18.10
2019-05-09T02:22:34.529Z,19.25
2019-05-09T02:25:07.815Z,18.65
2019-05-09T02:27:35.838Z,18.65
2019-05-09T02:30:06.978Z,17.65
2019-05-09T02:32:36.125Z,18.12
2019-05-09T02:35:05.481Z,17.65
2019-05-09T02:37:33.494Z,17.90
2019-05-09T02:40:01.398Z,20.48
2019-05-09T02:42:29.644Z,18.60
2019-05-09T02:44:59.627Z,18.23
2019-05-09T02:47:28.911Z,21.15
2019-05-09T02:49:58.951Z,18.32
2019-05-09T02:52:29.211Z,17.73
2019-05-09T02:54:58.382Z,18.25
2019-05-09T02:57:30.210Z,19.37
2019-05-09T03:00:08.707Z,19.37
2019-05-09T03:02:43.308Z,18.90
2019-05-09T03:05:14.158Z,18.95
2019-05-09T03:07:51.177Z,18.42
2019-05-09T03:10:19.786Z,18.57
2019-05-09T03:12:50.752Z,17.95
2019-05-09T03:15:18.857Z,19.62
2019-05-09T03:17:49.327Z,17.50
2019-05-09T03:20:28.707Z,19.48
2019-05-09T03:22:58.082Z,19.35
2019-05-09T03:25:28.875Z,20.55
2019-05-09T03:28:09.664Z,19.50
2019-05-09T03:30:39.685Z,17.52
2019-05-09T03:33:10.357Z,20.77
2019-05-09T03:35:38.642Z,17.62
2019-05-09T03:38:08.925Z,18.95
2019-05-09T03:40:37.726Z,18.20
2019-05-09T03:43:08.239Z,17.62
2019-05-09T03:45:42.671Z,17.60
2019-05-09T03:48:18.011Z,18.10
2019-05-09T03:50:48.737Z,19.17
2019-05-09T03:53:18.448Z,17.55
2019-05-09T03:55:47.829Z,17.45
2019-05-09T03:58:18.600Z,19.77
2019-05-09T04:00:47.931Z,18.37
2019-05-09T04:03:19.849Z,18.00
2019-05-09T04:05:58.471Z,18.75
2019-05-09T04:08:19.093Z,19.77
2019-05-09T04:10:53.472Z,17.00
2019-05-09T04:13:24.197Z,17.35
2019-05-09T04:15:54.301Z,17.35
2019-05-09T04:18:28.396Z,17.12
2019-05-09T04:20:57.311Z,17.17
2019-05-09T04:23:27.391Z,17.77
2019-05-09T04:26:09.133Z,16.80
2019-05-09T04:28:39.682Z,16.93
2019-05-09T04:31:07.359Z,17.32
2019-05-09T04:33:35.709Z,16.87
2019-05-09T04:36:05.667Z,16.37
2019-05-09T04:38:33.626Z,15.80
2019-05-09T04:41:03.047Z,17.50
2019-05-09T04:43:36.790Z,16.62
2019-05-09T04:46:07.888Z,16.90
2019-05-09T04:48:37.623Z,19.40
2019-05-09T04:51:07.913Z,17.00
2019-05-09T04:53:39.315Z,18.55
2019-05-09T04:56:17.657Z,16.65
2019-05-09T04:58:45.643Z,17.60
2019-05-09T05:01:34.489Z,17.73
2019-05-09T05:04:02.530Z,16.93
2019-05-09T05:06:30.411Z,17.15
2019-05-09T05:08:58.711Z,17.85
2019-05-09T05:11:27.907Z,15.95
2019-05-09T05:13:55.917Z,17.35
2019-05-09T05:16:27.296Z,17.37
2019-05-09T05:18:54.557Z,18.37
2019-05-09T05:21:22.422Z,16.45
2019-05-09T05:24:21.412Z,16.37
2019-05-09T05:26:49.296Z,16.80
2019-05-09T05:29:17.800Z,17.57
2019-05-09T05:31:47.726Z,18.32
2019-05-09T05:34:34.298Z,19.10
2019-05-09T05:37:02.153Z,18.48
2019-05-09T05:39:29.943Z,16.65
2019-05-09T05:41:58.290Z,18.40
2019-05-09T05:44:28.130Z,18.60
2019-05-09T05:47:18.104Z,19.07
2019-05-09T05:49:46.016Z,17.27
2019-05-09T05:52:13.900Z,16.60
2019-05-09T05:54:41.690Z,16.45
2019-05-09T05:57:09.542Z,18.73
2019-05-09T05:59:40.802Z,16.73
2019-05-09T06:02:08.670Z,15.60
2019-05-09T06:04:38.087Z,17.40
2019-05-09T06:07:08.033Z,17.60
2019-05-09T06:09:37.713Z,18.00
2019-05-09T06:12:05.163Z,16.65
2019-05-09T06:14:32.980Z,17.10
2019-05-09T06:17:00.820Z,15.68
2019-05-09T06:19:28.859Z,16.67
2019-05-09T06:21:57.444Z,17.50
2019-05-09T06:24:25.345Z,16.82
2019-05-09T06:26:53.187Z,18.17
2019-05-09T06:29:21.018Z,16.60
2019-05-09T06:31:48.846Z,15.72
2019-05-09T06:34:18.765Z,16.15
2019-05-09T06:36:48.897Z,15.55
2019-05-09T06:39:17.893Z,17.32
2019-05-09T06:41:47.656Z,15.60
2019-05-09T06:44:21.681Z,17.65
2019-05-09T06:46:54.519Z,20.25
2019-05-09T06:49:29.387Z,16.30
2019-05-09T06:51:57.909Z,16.25
2019-05-09T06:54:25.130Z,16.62
2019-05-09T06:56:52.982Z,25.20
2019-05-09T06:59:20.824Z,20.23
2019-05-09T07:01:52.422Z,16.00
2019-05-09T07:04:27.961Z,19.60
2019-05-09T07:07:00.462Z,17.85
2019-05-09T07:09:42.260Z,18.02
2019-05-09T07:12:10.101Z,16.75
2019-05-09T07:14:41.523Z,16.80
2019-05-09T07:17:08.421Z,16.80
2019-05-09T07:19:38.259Z,16.05
2019-05-09T07:22:11.835Z,16.37
2019-05-09T07:25:05.832Z,17.55
2019-05-09T07:27:28.569Z,16.25
2019-05-09T07:29:58.174Z,19.65
2019-05-09T07:32:27.766Z,15.85
2019-05-09T07:34:59.288Z,16.62
2019-05-09T07:37:27.579Z,16.20
2019-05-09T07:39:57.652Z,18.02
2019-05-09T07:42:25.091Z,16.60
2019-05-09T07:44:53.271Z,16.20
2019-05-09T07:47:21.078Z,17.55
2019-05-09T07:49:48.910Z,16.48
2019-05-09T07:52:18.590Z,15.50
2019-05-09T07:54:48.341Z,16.70
2019-05-09T07:57:18.159Z,16.90
2019-05-09T07:59:47.804Z,16.75
2019-05-09T08:02:17.458Z,17.32
2019-05-09T08:04:44.599Z,17.25
2019-05-09T08:07:12.441Z,18.90
2019-05-09T08:09:40.312Z,17.12
2019-05-09T08:12:08.104Z,15.55
2019-05-09T08:14:37.706Z,17.67
2019-05-09T08:17:05.483Z,16.35
2019-05-09T08:19:33.329Z,16.75
2019-05-09T08:22:01.145Z,15.65
2019-05-09T08:24:28.980Z,15.98
2019-05-09T08:26:58.099Z,17.17
2019-05-09T08:29:28.166Z,16.07
2019-05-09T08:31:58.036Z,16.87
2019-05-09T08:34:25.302Z,16.27
2019-05-09T08:36:53.178Z,17.60
2019-05-09T08:39:21.026Z,16.80
2019-05-09T08:41:48.880Z,17.48
2019-05-09T08:44:18.699Z,17.40
2019-05-09T08:46:48.103Z,17.57
2019-05-09T08:49:18.149Z,16.07
2019-05-09T08:52:14.985Z,17.48
2019-05-09T08:54:40.669Z,15.35
2019-05-09T08:57:08.549Z,15.83
2019-05-09T08:59:38.316Z,16.05
2019-05-09T09:02:18.096Z,16.40
2019-05-09T09:04:38.375Z,17.85
2019-05-09T09:07:08.160Z,17.75
2019-05-09T09:09:37.704Z,16.65
2019-05-09T09:12:21.194Z,16.70
2019-05-09T09:14:34.431Z,16.90
2019-05-09T09:17:02.347Z,16.60
2019-05-09T09:19:30.217Z,16.70
2019-05-09T09:22:00.650Z,17.07
2019-05-09T09:24:28.345Z,16.40
2019-05-09T09:26:57.371Z,16.07
2019-05-09T09:29:25.426Z,15.90
2019-05-09T09:31:53.712Z,16.73
2019-05-09T09:34:21.582Z,18.65
2019-05-09T09:36:50.410Z,17.15
2019-05-09T09:39:18.570Z,16.75
2019-05-09T09:41:50.311Z,17.48
2019-05-09T09:44:22.167Z,16.10
2019-05-09T09:46:47.878Z,18.32
2019-05-09T09:49:17.964Z,19.45
2019-05-09T09:51:45.359Z,17.82
2019-05-09T09:54:13.264Z,18.30
2019-05-09T09:56:43.737Z,17.00
2019-05-09T09:59:38.559Z,18.60
2019-05-09T10:02:10.296Z,17.05
2019-05-09T10:04:37.533Z,17.62
2019-05-09T10:07:08.904Z,17.02
2019-05-09T10:09:37.077Z,17.15
2019-05-09T10:12:04.909Z,17.87
2019-05-09T10:14:35.840Z,18.82
2019-05-09T10:17:21.682Z,17.25
2019-05-09T10:20:02.865Z,17.90
2019-05-09T10:22:30.793Z,17.30
2019-05-09T10:24:58.860Z,17.40
2019-05-09T10:27:28.346Z,19.12
2019-05-09T10:29:57.427Z,15.93
2019-05-09T10:32:25.525Z,15.88
2019-05-09T10:34:57.862Z,16.12
2019-05-09T10:37:25.070Z,17.50
2019-05-09T10:39:57.872Z,17.00
2019-05-09T10:42:43.772Z,16.75
2019-05-09T10:45:40.902Z,35.03
2019-05-09T10:48:08.283Z,19.40
2019-05-09T10:50:43.037Z,18.95
2019-05-09T10:53:08.053Z,18.40
2019-05-09T10:55:38.803Z,16.67
2019-05-09T10:58:08.070Z,20.40
2019-05-09T11:00:39.378Z,19.50
2019-05-09T11:03:05.824Z,17.95
2019-05-09T11:05:33.686Z,17.92
2019-05-09T11:08:01.518Z,18.17
2019-05-09T11:10:32.533Z,15.68
2019-05-09T11:12:58.928Z,17.82
2019-05-09T11:15:26.770Z,16.75
2019-05-09T11:17:54.585Z,17.62
2019-05-09T11:20:22.382Z,19.17
2019-05-09T11:22:50.213Z,18.52
2019-05-09T11:25:18.082Z,18.07
2019-05-09T11:27:46.545Z,17.02
2019-05-09T11:30:17.535Z,20.92
2019-05-09T11:32:45.123Z,16.90
2019-05-09T11:35:12.963Z,18.10
2019-05-09T11:37:40.879Z,17.07
2019-05-09T11:40:09.306Z,16.40
2019-05-09T11:42:38.125Z,16.87
2019-05-09T11:45:07.687Z,16.55
2019-05-09T11:47:42.561Z,16.35
2019-05-09T11:50:05.320Z,17.07
2019-05-09T11:52:33.205Z,16.52
2019-05-09T11:55:01.032Z,16.10
2019-05-09T11:57:31.578Z,15.70
2019-05-09T11:59:58.415Z,20.85
2019-05-09T12:02:27.979Z,16.85
2019-05-09T12:04:55.952Z,16.90
2019-05-09T12:07:23.823Z,17.85
2019-05-09T12:09:51.643Z,19.10
2019-05-09T12:12:19.680Z,15.90
2019-05-09T12:14:48.415Z,21.95
2019-05-09T12:17:19.283Z,18.73
2019-05-09T12:19:48.739Z,16.52
2019-05-09T12:22:15.524Z,17.60
2019-05-09T12:24:44.026Z,17.10
2019-05-09T12:27:11.866Z,17.70
2019-05-09T12:29:39.694Z,15.78
2019-05-09T12:32:08.792Z,16.37
2019-05-09T12:34:36.918Z,16.40
2019-05-09T12:37:04.780Z,16.32
2019-05-09T12:39:32.613Z,16.80
2019-05-09T12:42:00.524Z,16.60
2019-05-09T12:44:28.941Z,16.15
2019-05-09T12:46:58.156Z,18.57
2019-05-09T12:49:28.295Z,16.70
2019-05-09T12:51:58.076Z,16.65
2019-05-09T12:54:27.817Z,18.50
2019-05-09T12:56:54.947Z,16.70
2019-05-09T12:59:22.803Z,18.80
2019-05-09T13:01:50.635Z,16.70
2019-05-09T13:04:18.490Z,17.55
2019-05-09T13:06:48.620Z,15.95
2019-05-09T13:09:17.807Z,16.42
2019-05-09T13:11:48.063Z,17.00
2019-05-09T13:14:15.707Z,16.50
2019-05-09T13:16:53.705Z,18.23
2019-05-09T13:19:20.820Z,15.98
2019-05-09T13:21:48.659Z,17.20
2019-05-09T13:24:19.501Z,16.20
2019-05-09T13:26:48.317Z,18.77
2019-05-09T13:29:16.154Z,16.80
2019-05-09T13:31:43.974Z,16.93
2019-05-09T13:34:11.809Z,16.30
2019-05-09T13:36:39.746Z,16.80
2019-05-09T13:39:08.790Z,15.90
2019-05-09T13:41:37.653Z,16.25
2019-05-09T13:44:12.593Z,16.65
2019-05-09T13:46:35.323Z,15.60
2019-05-09T13:49:11.427Z,16.42
2019-05-09T13:51:32.753Z,16.35
2019-05-09T13:54:00.604Z,16.95
2019-05-09T13:56:28.463Z,15.60
2019-05-09T13:58:58.143Z,17.40
2019-05-09T14:01:25.909Z,15.90
2019-05-09T14:03:53.748Z,15.83
2019-05-09T14:06:22.059Z,16.20
2019-05-09T14:08:49.938Z,16.32
2019-05-09T14:11:19.281Z,16.50
2019-05-09T14:13:48.716Z,15.85
2019-05-09T14:16:21.768Z,17.05
2019-05-09T14:18:48.552Z,15.55
2019-05-09T14:21:19.291Z,15.43
2019-05-09T14:24:00.034Z,16.87
2019-05-09T14:26:17.816Z,16.10
2019-05-09T14:28:44.791Z,15.55
2019-05-09T14:31:12.743Z,15.72
2019-05-09T14:33:40.558Z,15.23
2019-05-09T14:36:08.432Z,15.90
2019-05-09T14:38:36.286Z,15.38
2019-05-09T14:41:04.125Z,15.53
2019-05-09T14:43:32.010Z,16.20
2019-05-09T14:45:59.877Z,16.48
2019-05-09T14:48:28.709Z,15.75
2019-05-09T14:50:58.329Z,15.90
2019-05-09T14:53:28.302Z,15.80
2019-05-09T14:55:58.660Z,15.95
2019-05-09T14:58:25.608Z,14.98
2019-05-09T15:00:53.444Z,15.40
2019-05-09T15:03:21.296Z,15.53
2019-05-09T15:05:49.217Z,16.15
2019-05-09T15:08:18.071Z,15.08
2019-05-09T15:10:46.183Z,15.45
2019-05-09T15:13:14.074Z,15.00
2019-05-09T15:15:41.908Z,14.90
2019-05-09T15:18:09.777Z,14.45
2019-05-09T15:20:38.096Z,15.00
2019-05-09T15:23:08.439Z,15.93
2019-05-09T15:25:35.556Z,15.13
2019-05-09T15:28:03.467Z,15.85
2019-05-09T15:30:31.331Z,15.23
2019-05-09T15:32:59.173Z,15.70
2019-05-09T15:35:28.146Z,15.13
2019-05-09T15:37:58.815Z,15.08
2019-05-09T15:40:28.221Z,15.18
2019-05-09T15:42:55.335Z,14.78
2019-05-09T15:45:23.991Z,14.65
2019-05-09T15:47:51.842Z,16.05
2019-05-09T15:50:23.087Z,15.13
2019-05-09T15:52:49.307Z,14.80
2019-05-09T15:55:17.767Z,14.80
2019-05-09T15:57:45.768Z,15.83
2019-05-09T16:00:14.487Z,15.30
2019-05-09T16:02:42.341Z,14.90
2019-05-09T16:05:10.815Z,14.47
2019-05-09T16:07:38.861Z,15.03
2019-05-09T16:10:08.573Z,15.53
2019-05-09T16:12:38.402Z,14.60
2019-05-09T16:15:07.817Z,14.90
2019-05-09T16:17:38.978Z,14.87
2019-05-09T16:20:05.495Z,14.55
2019-05-09T16:22:33.361Z,14.75
2019-05-09T16:25:01.222Z,14.78
2019-05-09T16:27:29.902Z,14.38
2019-05-09T16:29:58.097Z,14.73
2019-05-09T16:32:26.158Z,14.28
2019-05-09T16:34:56.052Z,15.00
2019-05-09T16:37:28.319Z,16.10
2019-05-09T16:40:00.051Z,14.78
2019-05-09T16:42:27.945Z,14.33
2019-05-09T16:44:59.153Z,16.60
2019-05-09T16:47:28.288Z,15.05
2019-05-09T16:49:55.174Z,15.40
2019-05-09T16:52:23.059Z,15.05
2019-05-09T16:54:53.074Z,17.45
2019-05-09T16:57:21.103Z,15.00
2019-05-09T16:59:49.473Z,18.65
2019-05-09T17:02:23.923Z,15.30
2019-05-09T17:04:47.136Z,14.68
2019-05-09T17:07:18.071Z,14.75
2019-05-09T17:09:48.344Z,14.63
2019-05-09T17:12:15.636Z,14.95
2019-05-09T17:14:43.540Z,15.20
2019-05-09T17:17:11.439Z,14.87
2019-05-09T17:19:42.381Z,14.93
2019-05-09T17:22:17.448Z,16.12
2019-05-09T17:24:48.371Z,15.28
2019-05-09T17:27:18.842Z,15.30
2019-05-09T17:29:47.880Z,16.95
2019-05-09T17:32:18.293Z,14.90
2019-05-09T17:34:48.085Z,14.47
2019-05-09T17:37:17.722Z,15.40
2019-05-09T17:39:45.707Z,14.93
2019-05-09T17:42:13.641Z,15.43
2019-05-09T17:44:41.524Z,14.00
2019-05-09T17:47:11.762Z,15.80
2019-05-09T17:49:39.665Z,14.60
2019-05-09T17:52:07.753Z,14.10
2019-05-09T17:54:37.405Z,16.35
2019-05-09T17:57:07.845Z,15.15
2019-05-09T17:59:35.179Z,14.40
2019-05-09T18:02:03.114Z,15.45
2019-05-09T18:04:31.025Z,14.50
2019-05-09T18:06:59.522Z,14.18
2019-05-09T18:09:28.663Z,15.08
2019-05-09T18:11:57.830Z,15.40
2019-05-09T18:14:27.653Z,14.80
2019-05-09T18:16:58.045Z,14.60
2019-05-09T18:19:25.621Z,14.78
2019-05-09T18:21:53.587Z,14.85
2019-05-09T18:24:22.686Z,15.25
2019-05-09T18:26:50.552Z,15.15
2019-05-09T18:29:18.526Z,15.25
2019-05-09T18:32:14.369Z,15.25
2019-05-09T18:34:42.718Z,15.40
2019-05-09T18:37:10.569Z,15.25
2019-05-09T18:39:38.486Z,15.55
2019-05-09T18:42:08.515Z,15.53
2019-05-09T18:44:38.089Z,16.40
2019-05-09T18:47:07.826Z,16.62
2019-05-09T18:49:35.969Z,16.95
2019-05-09T18:52:04.395Z,15.50
2019-05-09T18:54:35.863Z,15.95
2019-05-09T18:57:03.522Z,15.50
2019-05-09T18:59:31.362Z,17.15
2019-05-09T19:01:59.192Z,15.90
2019-05-09T19:04:27.075Z,17.75
2019-05-09T19:06:54.974Z,15.40
2019-05-09T19:09:23.317Z,16.80
2019-05-09T19:11:51.176Z,16.12
2019-05-09T19:14:20.765Z,15.32
2019-05-09T19:17:07.694Z,16.20
2019-05-09T19:19:40.940Z,14.70
2019-05-09T19:22:21.410Z,15.30
2019-05-09T19:24:38.373Z,15.35
2019-05-09T19:27:06.353Z,15.72
2019-05-09T19:29:34.232Z,15.75
2019-05-09T19:32:02.148Z,15.70
2019-05-09T19:34:29.983Z,20.23
2019-05-09T19:36:58.005Z,15.10
2019-05-09T19:39:25.931Z,15.68
2019-05-09T19:41:53.846Z,15.10
2019-05-09T19:44:22.087Z,16.95
2019-05-09T19:46:50.237Z,14.78
2019-05-09T19:49:18.150Z,15.05
2019-05-09T19:51:49.081Z,15.05
2019-05-09T19:54:18.076Z,15.55
2019-05-09T19:56:48.443Z,17.92
2019-05-09T19:59:18.877Z,14.90
2019-05-09T20:01:47.260Z,15.20
2019-05-09T20:04:15.146Z,15.18
2019-05-09T20:06:43.039Z,16.97
2019-05-09T20:09:35.809Z,14.78
2019-05-09T20:12:26.182Z,14.98
2019-05-09T20:14:54.287Z,16.00
2019-05-09T20:17:22.475Z,15.90
2019-05-09T20:19:51.738Z,16.35
2019-05-09T20:22:19.921Z,16.05
2019-05-09T20:24:48.144Z,16.12
2019-05-09T20:27:16.335Z,15.85
2019-05-09T20:29:44.657Z,15.60
2019-05-09T20:32:12.667Z,17.67
2019-05-09T20:34:40.564Z,16.77
2019-05-09T20:37:08.458Z,16.55
2019-05-09T20:39:36.521Z,16.75
2019-05-09T20:42:07.178Z,19.00
2019-05-09T20:44:35.312Z,17.42
2019-05-09T20:47:03.407Z,18.27
2019-05-09T20:49:31.439Z,16.57
2019-05-09T20:51:59.516Z,16.60
2019-05-09T20:54:28.030Z,16.45
2019-05-09T20:56:56.918Z,17.60
2019-05-09T20:59:24.999Z,16.90
2019-05-09T21:01:53.101Z,16.67
2019-05-09T21:04:21.206Z,19.35
2019-05-09T21:06:49.256Z,16.65
2019-05-09T21:09:17.401Z,17.27
2019-05-09T21:11:45.417Z,17.17
2019-05-09T21:14:13.484Z,16.50
2019-05-09T21:16:41.495Z,17.15
2019-05-09T21:19:09.549Z,16.90
2019-05-09T21:21:37.564Z,16.93
2019-05-09T21:24:05.659Z,17.25
2019-05-09T21:26:33.684Z,16.65
2019-05-09T21:29:01.744Z,17.65
2019-05-09T21:31:29.759Z,17.55
2019-05-09T21:33:58.056Z,17.90
2019-05-09T21:36:25.878Z,18.30
2019-05-09T21:38:53.734Z,18.87
2019-05-09T21:41:21.746Z,17.37
2019-05-09T21:43:49.651Z,17.62
2019-05-09T21:46:17.547Z,18.12
2019-05-09T21:48:45.370Z,18.82
2019-05-09T21:51:14.363Z,19.42
2019-05-09T21:53:42.209Z,19.25
2019-05-09T21:56:10.095Z,18.20
2019-05-09T21:58:37.940Z,18.27
2019-05-09T22:01:06.266Z,18.67
2019-05-09T22:03:34.183Z,20.23
2019-05-09T22:06:02.057Z,20.15
2019-05-09T22:08:29.900Z,20.92
2019-05-09T22:10:57.829Z,22.80
2019-05-09T22:13:26.016Z,24.02
2019-05-09T22:15:53.970Z,25.48
2019-05-09T22:18:21.820Z,26.12
2019-05-09T22:20:49.641Z,28.02
2019-05-09T22:23:17.510Z,28.23
2019-05-09T22:25:45.384Z,28.90
2019-05-09T22:28:13.254Z,29.27
2019-05-09T22:30:42.711Z,30.40
2019-05-09T22:33:10.625Z,36.80
2019-05-09T22:35:38.542Z,29.82
2019-05-09T22:38:06.419Z,33.90
2019-05-09T22:40:34.332Z,31.40
2019-05-09T22:43:03.041Z,30.32
2019-05-09T22:45:32.568Z,32.30
2019-05-09T22:48:00.745Z,30.48
2019-05-09T22:50:28.626Z,29.75
2019-05-09T22:52:56.558Z,29.90
2019-05-09T22:55:24.819Z,30.35
2019-05-09T22:57:52.706Z,31.02
2019-05-09T23:00:20.554Z,33.53
2019-05-09T23:02:48.459Z,29.65
2019-05-09T23:05:16.282Z,29.35
2019-05-09T23:07:44.199Z,29.07
2019-05-09T23:10:12.214Z,27.67
2019-05-09T23:12:40.233Z,28.45
2019-05-09T23:15:09.676Z,27.75
2019-05-09T23:17:37.558Z,25.70
2019-05-09T23:20:07.450Z,26.95
2019-05-09T23:22:35.352Z,28.67
2019-05-09T23:25:03.305Z,29.18
2019-05-09T23:27:31.135Z,25.75
2019-05-09T23:29:59.017Z,27.42
2019-05-09T23:32:42.035Z,28.87
2019-05-09T23:35:10.393Z,28.35
2019-05-09T23:37:38.273Z,26.23
2019-05-09T23:40:06.614Z,28.20
2019-05-09T23:42:34.435Z,25.90
2019-05-09T23:45:02.350Z,27.65
2019-05-09T23:47:30.200Z,27.65
2019-05-09T23:50:02.367Z,27.75
2019-05-09T23:52:30.233Z,25.77
2019-05-09T23:55:15.994Z,27.85
2019-05-09T23:58:01.782Z,28.12
